This is the latest recevied weather packets stored in our database for station/object KJ7HSW. If no packets are shown the sender has not sent any weather packets the latest 1 day(s).
| Time | Temp. | Humidity | Pressure | Rain* | Wind** | Luminosity | Snow |
|---|---|---|---|---|---|---|---|
| 1778047961 | 13.33° C | 86% | 1015.4 hPa | 0 mm | 1.34 m/s, 194° | 0 W/m² | - |
| 1778047660 | 13.33° C | 87% | 1015.2 hPa | 0 mm | 1.34 m/s, 212° | 0 W/m² | - |
| 1778047357 | 13.33° C | 87% | 1015.3 hPa | 0 mm | 1.34 m/s, 201° | 0 W/m² | - |
| 1778047054 | 13.33° C | 88% | 1015.4 hPa | 0 mm | 1.34 m/s, 185° | 0 W/m² | - |
| 1778046750 | 12.78° C | 89% | 1015.2 hPa | 0 mm | 1.34 m/s, 181° | 0 W/m² | - |
| 1778046448 | 12.78° C | 90% | 1015.2 hPa | 0 mm | 0.89 m/s, 235° | 0 W/m² | - |
| 1778046143 | 12.78° C | 89% | 1015.1 hPa | 0 mm | 0.89 m/s, 215° | 0 W/m² | - |
| 1778045841 | 12.78° C | 89% | 1015.2 hPa | 0 mm | 0.89 m/s, 188° | 0 W/m² | - |
| 1778045540 | 12.78° C | 88% | 1015 hPa | 0 mm | 0.89 m/s, 216° | 0 W/m² | - |
| 1778045237 | 12.78° C | 88% | 1015.2 hPa | 0 mm | 0.89 m/s, 250° | 0 W/m² | - |
| 1778044936 | 12.78° C | 88% | 1015.2 hPa | 0 mm | 1.34 m/s, 246° | 0 W/m² | - |
| 1778044633 | 13.33° C | 88% | 1015.1 hPa | 0 mm | 0.89 m/s, 252° | 0 W/m² | - |
| 1778044329 | 13.33° C | 87% | 1015 hPa | 0 mm | 0.89 m/s, 214° | 0 W/m² | - |
| 1778044027 | 13.33° C | 87% | 1014.8 hPa | 0 mm | 0.89 m/s, 295° | 0 W/m² | - |
| 1778043724 | 13.33° C | 86% | 1014.9 hPa | 0 mm | 1.34 m/s, 220° | 0 W/m² | - |
| 1778043421 | 13.89° C | 86% | 1014.9 hPa | 0 mm | 0.89 m/s, 229° | 0 W/m² | - |
| 1778043117 | 13.89° C | 86% | 1014.7 hPa | 0 mm | 0.89 m/s, 252° | 0 W/m² | - |
| 1778042815 | 13.89° C | 85% | 1014.8 hPa | 0 mm | 1.34 m/s, 250° | 0 W/m² | - |
| 1778042511 | 13.89° C | 84% | 1014.8 hPa | 0 mm | 0.45 m/s, 214° | 0 W/m² | - |
| 1778042209 | 14.44° C | 84% | 1014.6 hPa | 0 mm | 0.45 m/s, 297° | 0 W/m² | - |
| 1778041907 | 14.44° C | 84% | 1014.6 hPa | 0 mm | 0.45 m/s, 269° | 0 W/m² | - |
| 1778041606 | 14.44° C | 83% | 1014.7 hPa | 0 mm | 0.45 m/s, 198° | 0 W/m² | - |
| 1778041303 | 14.44° C | 82% | 1014.6 hPa | 0 mm | 0.45 m/s, 208° | 0 W/m² | - |
| 1778041001 | 15° C | 81% | 1014.4 hPa | 0 mm | 0.89 m/s, 323° | 0 W/m² | - |
| 1778040698 | 15° C | 81% | 1014.4 hPa | 0 mm | 0 m/s | 0 W/m² | - |
* Rain latest hour (hover to see other rain measurements)
** Current wind speed in m/s (hover to see current wind gust speed)